Weather at Wellington Airstrip [CLOSED]

Public forecast

Using degrees Celsius for public forecast. Weather courtesy of forecast.io.

Closest aviation weather report (METAR) to Wellington Airstrip

Closest report is CFB Trenton, 13.0 nm (24.1 km) NW.

2024/06/15 04:00 (retrieved 36 minutes ago)

CYTR 150400Z 33007KT 15SM SCT070 17/12 A2998 RMK AC3 DENSITY ALT 686FT SLP152

Closest aviation forecast (TAF) to Wellington Airstrip

Forecast is more than 6 hours old.

Closest forecast is Kingston Norman Rogers Airport, 34.6 nm (64.0 km) ENE.

2024/06/14 20:00 (retrieved 9 hours ago)

TAF CYGK 141940Z 1420/1503 27008KT P6SM SCT050 BKN080 TEMPO 1420/1424 P6SM -SHRA BKN050 OVC080 PROB30 1420/1423 3SM TSRA BR OVC040CB FM150000 35008KT P6SM BKN060 RMK NXT FCST BY 151200Z